sensor_id;sensor_type;location;lat;lon;timestamp;P1;durP1;ratioP1;P2;durP2;ratioP2
50363;SDS011;36272;59.400;17.982;2023-12-20T00:00:04;19.05;;;3.55;;
50363;SDS011;36272;59.400;17.982;2023-12-20T00:05:07;25.35;;;3.30;;
50363;SDS011;36272;59.400;17.982;2023-12-20T00:10:08;22.77;;;2.55;;
50363;SDS011;36272;59.400;17.982;2023-12-20T00:15:10;26.48;;;2.88;;
50363;SDS011;36272;59.400;17.982;2023-12-20T00:20:12;16.35;;;2.75;;
50363;SDS011;36272;59.400;17.982;2023-12-20T00:25:14;23.40;;;2.90;;
50363;SDS011;36272;59.400;17.982;2023-12-20T00:30:16;23.88;;;3.65;;
50363;SDS011;36272;59.400;17.982;2023-12-20T00:35:18;22.05;;;2.85;;
50363;SDS011;36272;59.400;17.982;2023-12-20T00:40:20;20.00;;;2.58;;
50363;SDS011;36272;59.400;17.982;2023-12-20T00:45:21;27.08;;;4.07;;
50363;SDS011;36272;59.400;17.982;2023-12-20T00:50:23;22.60;;;2.85;;
50363;SDS011;36272;59.400;17.982;2023-12-20T00:55:25;18.73;;;2.90;;
50363;SDS011;36272;59.400;17.982;2023-12-20T01:00:26;19.95;;;3.38;;
50363;SDS011;36272;59.400;17.982;2023-12-20T01:05:28;22.25;;;3.20;;
50363;SDS011;36272;59.400;17.982;2023-12-20T01:10:30;23.45;;;3.45;;
50363;SDS011;36272;59.400;17.982;2023-12-20T01:15:34;22.05;;;2.85;;
50363;SDS011;36272;59.400;17.982;2023-12-20T01:20:35;23.00;;;2.75;;
50363;SDS011;36272;59.400;17.982;2023-12-20T01:25:37;23.10;;;2.90;;
50363;SDS011;36272;59.400;17.982;2023-12-20T01:30:39;16.58;;;3.58;;
50363;SDS011;36272;59.400;17.982;2023-12-20T01:35:45;21.95;;;3.08;;
50363;SDS011;36272;59.400;17.982;2023-12-20T01:40:47;30.55;;;4.18;;
50363;SDS011;36272;59.400;17.982;2023-12-20T01:45:48;24.58;;;3.70;;
50363;SDS011;36272;59.400;17.982;2023-12-20T01:50:51;23.33;;;2.63;;
50363;SDS011;36272;59.400;17.982;2023-12-20T01:55:54;32.65;;;4.45;;
50363;SDS011;36272;59.400;17.982;2023-12-20T02:00:57;23.50;;;3.20;;
50363;SDS011;36272;59.400;17.982;2023-12-20T02:05:59;25.48;;;3.53;;
50363;SDS011;36272;59.400;17.982;2023-12-20T02:11:01;37.67;;;3.85;;
50363;SDS011;36272;59.400;17.982;2023-12-20T02:16:03;32.63;;;2.88;;
50363;SDS011;36272;59.400;17.982;2023-12-20T02:21:05;28.85;;;3.13;;
50363;SDS011;36272;59.400;17.982;2023-12-20T02:26:07;22.55;;;3.13;;
50363;SDS011;36272;59.400;17.982;2023-12-20T02:31:08;30.20;;;3.38;;
50363;SDS011;36272;59.400;17.982;2023-12-20T02:36:10;26.70;;;4.15;;
50363;SDS011;36272;59.400;17.982;2023-12-20T02:41:11;28.55;;;3.58;;
50363;SDS011;36272;59.400;17.982;2023-12-20T02:46:13;35.60;;;3.58;;
50363;SDS011;36272;59.400;17.982;2023-12-20T02:51:17;27.88;;;4.20;;
50363;SDS011;36272;59.400;17.982;2023-12-20T02:56:18;24.92;;;3.95;;
50363;SDS011;36272;59.400;17.982;2023-12-20T03:01:20;32.83;;;4.00;;
50363;SDS011;36272;59.400;17.982;2023-12-20T03:06:21;24.85;;;3.67;;
50363;SDS011;36272;59.400;17.982;2023-12-20T03:11:26;31.65;;;3.60;;
50363;SDS011;36272;59.400;17.982;2023-12-20T03:16:28;29.85;;;3.63;;
50363;SDS011;36272;59.400;17.982;2023-12-20T03:21:30;20.65;;;3.70;;
50363;SDS011;36272;59.400;17.982;2023-12-20T03:26:31;38.85;;;3.85;;
50363;SDS011;36272;59.400;17.982;2023-12-20T03:31:33;36.22;;;4.05;;
50363;SDS011;36272;59.400;17.982;2023-12-20T03:36:35;26.65;;;3.60;;
50363;SDS011;36272;59.400;17.982;2023-12-20T03:41:36;19.50;;;3.65;;
50363;SDS011;36272;59.400;17.982;2023-12-20T03:46:38;22.88;;;3.05;;
50363;SDS011;36272;59.400;17.982;2023-12-20T03:51:42;15.05;;;3.30;;
50363;SDS011;36272;59.400;17.982;2023-12-20T03:56:44;25.10;;;4.38;;
50363;SDS011;36272;59.400;17.982;2023-12-20T04:01:45;24.38;;;3.92;;
50363;SDS011;36272;59.400;17.982;2023-12-20T04:06:47;24.67;;;3.55;;
50363;SDS011;36272;59.400;17.982;2023-12-20T04:11:49;16.80;;;3.53;;
50363;SDS011;36272;59.400;17.982;2023-12-20T04:16:50;33.35;;;3.50;;
50363;SDS011;36272;59.400;17.982;2023-12-20T04:21:52;22.02;;;3.22;;
50363;SDS011;36272;59.400;17.982;2023-12-20T04:26:53;24.20;;;3.67;;
50363;SDS011;36272;59.400;17.982;2023-12-20T04:31:55;25.35;;;3.40;;
50363;SDS011;36272;59.400;17.982;2023-12-20T04:36:57;21.75;;;3.00;;
50363;SDS011;36272;59.400;17.982;2023-12-20T04:41:58;17.75;;;3.70;;
50363;SDS011;36272;59.400;17.982;2023-12-20T04:47:00;23.40;;;3.70;;
50363;SDS011;36272;59.400;17.982;2023-12-20T04:52:02;29.50;;;3.65;;
50363;SDS011;36272;59.400;17.982;2023-12-20T04:57:04;18.45;;;3.15;;
50363;SDS011;36272;59.400;17.982;2023-12-20T05:02:05;22.75;;;3.70;;
50363;SDS011;36272;59.400;17.982;2023-12-20T05:07:07;16.02;;;3.30;;
50363;SDS011;36272;59.400;17.982;2023-12-20T05:12:08;22.42;;;3.25;;
50363;SDS011;36272;59.400;17.982;2023-12-20T05:17:10;15.55;;;3.38;;
50363;SDS011;36272;59.400;17.982;2023-12-20T05:22:12;19.33;;;3.47;;
50363;SDS011;36272;59.400;17.982;2023-12-20T05:27:13;18.98;;;3.80;;
50363;SDS011;36272;59.400;17.982;2023-12-20T05:32:15;21.13;;;3.55;;
50363;SDS011;36272;59.400;17.982;2023-12-20T05:37:17;18.52;;;3.53;;
50363;SDS011;36272;59.400;17.982;2023-12-20T05:42:21;15.23;;;4.05;;
50363;SDS011;36272;59.400;17.982;2023-12-20T05:47:26;20.70;;;4.50;;
50363;SDS011;36272;59.400;17.982;2023-12-20T05:52:28;25.73;;;4.17;;
50363;SDS011;36272;59.400;17.982;2023-12-20T05:57:29;23.85;;;4.22;;
50363;SDS011;36272;59.400;17.982;2023-12-20T06:02:46;20.77;;;5.10;;
50363;SDS011;36272;59.400;17.982;2023-12-20T06:07:50;25.38;;;5.18;;
50363;SDS011;36272;59.400;17.982;2023-12-20T06:12:52;31.15;;;5.47;;
50363;SDS011;36272;59.400;17.982;2023-12-20T06:17:58;24.08;;;5.22;;
50363;SDS011;36272;59.400;17.982;2023-12-20T06:23:00;28.20;;;5.68;;
50363;SDS011;36272;59.400;17.982;2023-12-20T06:28:03;28.05;;;6.25;;
50363;SDS011;36272;59.400;17.982;2023-12-20T06:33:05;35.88;;;5.85;;
50363;SDS011;36272;59.400;17.982;2023-12-20T06:38:08;39.08;;;6.25;;
50363;SDS011;36272;59.400;17.982;2023-12-20T06:43:10;28.15;;;6.10;;
50363;SDS011;36272;59.400;17.982;2023-12-20T06:48:12;24.85;;;6.40;;
50363;SDS011;36272;59.400;17.982;2023-12-20T06:53:15;42.85;;;7.05;;
50363;SDS011;36272;59.400;17.982;2023-12-20T06:58:17;37.58;;;8.60;;
50363;SDS011;36272;59.400;17.982;2023-12-20T07:03:19;50.03;;;6.75;;
50363;SDS011;36272;59.400;17.982;2023-12-20T07:08:21;39.90;;;6.63;;
50363;SDS011;36272;59.400;17.982;2023-12-20T07:13:22;58.55;;;7.65;;
50363;SDS011;36272;59.400;17.982;2023-12-20T07:18:24;43.28;;;8.05;;
50363;SDS011;36272;59.400;17.982;2023-12-20T07:23:26;48.50;;;7.47;;
50363;SDS011;36272;59.400;17.982;2023-12-20T07:28:33;39.85;;;7.72;;
50363;SDS011;36272;59.400;17.982;2023-12-20T07:33:40;34.42;;;8.38;;
50363;SDS011;36272;59.400;17.982;2023-12-20T07:38:42;48.78;;;8.50;;
50363;SDS011;36272;59.400;17.982;2023-12-20T07:43:45;51.55;;;9.60;;
50363;SDS011;36272;59.400;17.982;2023-12-20T07:48:47;48.30;;;9.50;;
50363;SDS011;36272;59.400;17.982;2023-12-20T07:53:48;48.47;;;10.90;;
50363;SDS011;36272;59.400;17.982;2023-12-20T07:58:50;49.72;;;11.40;;
50363;SDS011;36272;59.400;17.982;2023-12-20T08:03:51;50.60;;;12.80;;
50363;SDS011;36272;59.400;17.982;2023-12-20T08:08:53;54.03;;;12.80;;
50363;SDS011;36272;59.400;17.982;2023-12-20T08:13:55;52.53;;;12.70;;
50363;SDS011;36272;59.400;17.982;2023-12-20T08:18:56;50.47;;;11.43;;
50363;SDS011;36272;59.400;17.982;2023-12-20T08:23:58;45.95;;;11.52;;
50363;SDS011;36272;59.400;17.982;2023-12-20T08:29:01;52.28;;;13.65;;
50363;SDS011;36272;59.400;17.982;2023-12-20T08:34:05;47.72;;;12.38;;
50363;SDS011;36272;59.400;17.982;2023-12-20T08:39:07;45.33;;;12.27;;
50363;SDS011;36272;59.400;17.982;2023-12-20T08:44:12;61.83;;;12.23;;
50363;SDS011;36272;59.400;17.982;2023-12-20T08:49:16;46.67;;;10.93;;
50363;SDS011;36272;59.400;17.982;2023-12-20T08:54:18;42.53;;;11.10;;
50363;SDS011;36272;59.400;17.982;2023-12-20T08:59:20;39.58;;;11.60;;
50363;SDS011;36272;59.400;17.982;2023-12-20T09:04:22;47.63;;;11.15;;
50363;SDS011;36272;59.400;17.982;2023-12-20T09:09:24;37.13;;;10.88;;
50363;SDS011;36272;59.400;17.982;2023-12-20T09:14:25;44.08;;;10.55;;
50363;SDS011;36272;59.400;17.982;2023-12-20T09:19:27;43.30;;;11.63;;
50363;SDS011;36272;59.400;17.982;2023-12-20T09:24:29;42.47;;;10.50;;
50363;SDS011;36272;59.400;17.982;2023-12-20T09:29:31;49.25;;;12.02;;
50363;SDS011;36272;59.400;17.982;2023-12-20T09:34:33;55.30;;;14.65;;
50363;SDS011;36272;59.400;17.982;2023-12-20T09:39:35;54.10;;;12.75;;
50363;SDS011;36272;59.400;17.982;2023-12-20T09:44:39;52.00;;;14.00;;
50363;SDS011;36272;59.400;17.982;2023-12-20T09:49:43;57.30;;;13.93;;
50363;SDS011;36272;59.400;17.982;2023-12-20T09:54:47;50.42;;;14.32;;
50363;SDS011;36272;59.400;17.982;2023-12-20T09:59:53;50.60;;;14.48;;
50363;SDS011;36272;59.400;17.982;2023-12-20T10:04:58;48.33;;;13.73;;
50363;SDS011;36272;59.400;17.982;2023-12-20T10:10:01;55.78;;;14.75;;
50363;SDS011;36272;59.400;17.982;2023-12-20T10:15:03;49.00;;;14.77;;
50363;SDS011;36272;59.400;17.982;2023-12-20T10:20:06;56.40;;;14.38;;
50363;SDS011;36272;59.400;17.982;2023-12-20T10:25:11;45.55;;;11.25;;
50363;SDS011;36272;59.400;17.982;2023-12-20T10:30:15;52.35;;;11.68;;
50363;SDS011;36272;59.400;17.982;2023-12-20T10:35:17;38.22;;;9.40;;
50363;SDS011;36272;59.400;17.982;2023-12-20T10:40:21;37.85;;;10.73;;
50363;SDS011;36272;59.400;17.982;2023-12-20T10:45:23;43.97;;;9.35;;
50363;SDS011;36272;59.400;17.982;2023-12-20T10:50:26;36.22;;;9.73;;
50363;SDS011;36272;59.400;17.982;2023-12-20T10:55:28;41.28;;;10.27;;
50363;SDS011;36272;59.400;17.982;2023-12-20T11:00:30;42.00;;;9.68;;
50363;SDS011;36272;59.400;17.982;2023-12-20T11:05:35;34.40;;;8.05;;
50363;SDS011;36272;59.400;17.982;2023-12-20T11:10:52;45.08;;;8.15;;
50363;SDS011;36272;59.400;17.982;2023-12-20T11:16:01;26.98;;;6.00;;
50363;SDS011;36272;59.400;17.982;2023-12-20T11:21:04;29.77;;;5.35;;
50363;SDS011;36272;59.400;17.982;2023-12-20T11:26:06;30.48;;;6.50;;
50363;SDS011;36272;59.400;17.982;2023-12-20T11:31:07;29.20;;;6.28;;
50363;SDS011;36272;59.400;17.982;2023-12-20T11:36:15;30.65;;;6.97;;
50363;SDS011;36272;59.400;17.982;2023-12-20T11:41:22;29.92;;;7.72;;
50363;SDS011;36272;59.400;17.982;2023-12-20T11:46:25;22.40;;;6.65;;
50363;SDS011;36272;59.400;17.982;2023-12-20T11:51:29;30.35;;;6.53;;
50363;SDS011;36272;59.400;17.982;2023-12-20T11:56:31;25.52;;;7.30;;
50363;SDS011;36272;59.400;17.982;2023-12-20T12:01:33;24.33;;;6.18;;
50363;SDS011;36272;59.400;17.982;2023-12-20T12:06:34;24.77;;;5.85;;
50363;SDS011;36272;59.400;17.982;2023-12-20T12:11:36;21.90;;;5.40;;
50363;SDS011;36272;59.400;17.982;2023-12-20T12:16:38;18.92;;;5.60;;
50363;SDS011;36272;59.400;17.982;2023-12-20T12:21:40;23.00;;;5.65;;
50363;SDS011;36272;59.400;17.982;2023-12-20T12:26:49;21.55;;;6.18;;
50363;SDS011;36272;59.400;17.982;2023-12-20T12:31:51;20.33;;;6.47;;
50363;SDS011;36272;59.400;17.982;2023-12-20T12:36:53;18.00;;;6.03;;
50363;SDS011;36272;59.400;17.982;2023-12-20T12:41:58;22.57;;;6.07;;
50363;SDS011;36272;59.400;17.982;2023-12-20T12:47:03;21.17;;;6.90;;
50363;SDS011;36272;59.400;17.982;2023-12-20T12:52:04;19.77;;;6.63;;
50363;SDS011;36272;59.400;17.982;2023-12-20T13:02:36;28.15;;;8.57;;
50363;SDS011;36272;59.400;17.982;2023-12-20T13:14:28;23.75;;;7.20;;
50363;SDS011;36272;59.400;17.982;2023-12-20T13:20:13;20.50;;;7.10;;
50363;SDS011;36272;59.400;17.982;2023-12-20T13:25:16;14.93;;;6.82;;
50363;SDS011;36272;59.400;17.982;2023-12-20T13:30:18;20.05;;;7.32;;
50363;SDS011;36272;59.400;17.982;2023-12-20T13:35:23;22.20;;;7.43;;
50363;SDS011;36272;59.400;17.982;2023-12-20T13:40:39;22.35;;;7.55;;
50363;SDS011;36272;59.400;17.982;2023-12-20T13:46:13;19.55;;;7.63;;
50363;SDS011;36272;59.400;17.982;2023-12-20T13:58:00;33.13;;;7.90;;
50363;SDS011;36272;59.400;17.982;2023-12-20T14:08:07;24.35;;;7.90;;
50363;SDS011;36272;59.400;17.982;2023-12-20T14:13:10;25.98;;;7.57;;
50363;SDS011;36272;59.400;17.982;2023-12-20T14:18:24;27.83;;;8.52;;
50363;SDS011;36272;59.400;17.982;2023-12-20T14:23:30;21.83;;;7.70;;
50363;SDS011;36272;59.400;17.982;2023-12-20T14:28:32;19.95;;;8.68;;
50363;SDS011;36272;59.400;17.982;2023-12-20T14:39:51;28.55;;;8.77;;
50363;SDS011;36272;59.400;17.982;2023-12-20T14:51:37;23.15;;;9.45;;
50363;SDS011;36272;59.400;17.982;2023-12-20T14:56:40;32.95;;;9.65;;
50363;SDS011;36272;59.400;17.982;2023-12-20T15:01:43;26.55;;;8.32;;
50363;SDS011;36272;59.400;17.982;2023-12-20T15:06:45;29.35;;;8.00;;
50363;SDS011;36272;59.400;17.982;2023-12-20T15:11:47;45.60;;;8.95;;
50363;SDS011;36272;59.400;17.982;2023-12-20T15:16:48;33.33;;;7.43;;
50363;SDS011;36272;59.400;17.982;2023-12-20T15:21:50;26.67;;;7.43;;
50363;SDS011;36272;59.400;17.982;2023-12-20T15:26:51;41.58;;;7.97;;
50363;SDS011;36272;59.400;17.982;2023-12-20T15:31:57;26.83;;;7.53;;
50363;SDS011;36272;59.400;17.982;2023-12-20T15:37:01;27.23;;;8.30;;
50363;SDS011;36272;59.400;17.982;2023-12-20T15:42:03;24.52;;;6.50;;
50363;SDS011;36272;59.400;17.982;2023-12-20T15:47:08;24.33;;;6.57;;
50363;SDS011;36272;59.400;17.982;2023-12-20T15:52:12;25.30;;;6.28;;
50363;SDS011;36272;59.400;17.982;2023-12-20T15:57:19;27.13;;;6.78;;
50363;SDS011;36272;59.400;17.982;2023-12-20T16:02:47;22.60;;;6.18;;
50363;SDS011;36272;59.400;17.982;2023-12-20T16:07:48;17.92;;;6.28;;
50363;SDS011;36272;59.400;17.982;2023-12-20T16:12:50;23.95;;;5.55;;
50363;SDS011;36272;59.400;17.982;2023-12-20T16:17:52;23.60;;;5.72;;
50363;SDS011;36272;59.400;17.982;2023-12-20T16:23:01;26.90;;;6.00;;
50363;SDS011;36272;59.400;17.982;2023-12-20T16:28:04;31.63;;;5.78;;
50363;SDS011;36272;59.400;17.982;2023-12-20T16:33:06;25.98;;;5.53;;
50363;SDS011;36272;59.400;17.982;2023-12-20T16:38:08;32.40;;;6.30;;
50363;SDS011;36272;59.400;17.982;2023-12-20T16:43:10;20.58;;;6.32;;
50363;SDS011;36272;59.400;17.982;2023-12-20T16:48:11;22.27;;;6.50;;
50363;SDS011;36272;59.400;17.982;2023-12-20T16:53:13;16.83;;;6.43;;
50363;SDS011;36272;59.400;17.982;2023-12-20T16:58:16;18.55;;;7.05;;
50363;SDS011;36272;59.400;17.982;2023-12-20T17:03:19;35.40;;;8.35;;
50363;SDS011;36272;59.400;17.982;2023-12-20T17:08:21;26.35;;;7.65;;
50363;SDS011;36272;59.400;17.982;2023-12-20T17:13:22;25.80;;;7.53;;
50363;SDS011;36272;59.400;17.982;2023-12-20T17:18:24;32.00;;;8.15;;
50363;SDS011;36272;59.400;17.982;2023-12-20T17:23:26;27.65;;;8.93;;
50363;SDS011;36272;59.400;17.982;2023-12-20T17:28:28;26.73;;;9.82;;
50363;SDS011;36272;59.400;17.982;2023-12-20T17:33:30;38.03;;;9.80;;
50363;SDS011;36272;59.400;17.982;2023-12-20T17:38:32;25.52;;;8.10;;
50363;SDS011;36272;59.400;17.982;2023-12-20T17:43:37;27.52;;;9.40;;
50363;SDS011;36272;59.400;17.982;2023-12-20T17:48:39;33.00;;;9.70;;
50363;SDS011;36272;59.400;17.982;2023-12-20T17:53:41;27.38;;;8.82;;
50363;SDS011;36272;59.400;17.982;2023-12-20T17:58:42;36.00;;;10.02;;
50363;SDS011;36272;59.400;17.982;2023-12-20T18:03:44;28.95;;;10.40;;
50363;SDS011;36272;59.400;17.982;2023-12-20T18:08:46;32.65;;;9.25;;
50363;SDS011;36272;59.400;17.982;2023-12-20T18:13:47;32.75;;;10.13;;
50363;SDS011;36272;59.400;17.982;2023-12-20T18:18:49;35.08;;;9.75;;
50363;SDS011;36272;59.400;17.982;2023-12-20T18:23:51;32.35;;;10.32;;
50363;SDS011;36272;59.400;17.982;2023-12-20T18:28:53;32.13;;;9.68;;
50363;SDS011;36272;59.400;17.982;2023-12-20T18:33:55;36.47;;;10.30;;
50363;SDS011;36272;59.400;17.982;2023-12-20T18:38:56;38.80;;;10.65;;
50363;SDS011;36272;59.400;17.982;2023-12-20T18:43:58;39.47;;;10.38;;
50363;SDS011;36272;59.400;17.982;2023-12-20T18:48:59;39.30;;;10.10;;
50363;SDS011;36272;59.400;17.982;2023-12-20T18:54:02;37.80;;;9.23;;
50363;SDS011;36272;59.400;17.982;2023-12-20T18:59:04;31.05;;;9.18;;
50363;SDS011;36272;59.400;17.982;2023-12-20T19:04:05;31.77;;;9.35;;
50363;SDS011;36272;59.400;17.982;2023-12-20T19:09:07;24.77;;;9.00;;
50363;SDS011;36272;59.400;17.982;2023-12-20T19:14:09;36.25;;;9.57;;
50363;SDS011;36272;59.400;17.982;2023-12-20T19:19:14;32.65;;;10.30;;
50363;SDS011;36272;59.400;17.982;2023-12-20T19:24:16;41.83;;;10.50;;
50363;SDS011;36272;59.400;17.982;2023-12-20T19:29:17;38.05;;;9.90;;
50363;SDS011;36272;59.400;17.982;2023-12-20T19:34:19;33.95;;;9.63;;
50363;SDS011;36272;59.400;17.982;2023-12-20T19:39:20;45.90;;;11.38;;
50363;SDS011;36272;59.400;17.982;2023-12-20T19:44:22;41.85;;;12.15;;
50363;SDS011;36272;59.400;17.982;2023-12-20T19:49:24;39.45;;;10.88;;
50363;SDS011;36272;59.400;17.982;2023-12-20T19:54:26;45.22;;;12.43;;
50363;SDS011;36272;59.400;17.982;2023-12-20T19:59:27;34.75;;;11.38;;
50363;SDS011;36272;59.400;17.982;2023-12-20T20:04:29;30.60;;;11.65;;
50363;SDS011;36272;59.400;17.982;2023-12-20T20:09:31;41.63;;;12.43;;
50363;SDS011;36272;59.400;17.982;2023-12-20T20:14:32;48.50;;;12.95;;
50363;SDS011;36272;59.400;17.982;2023-12-20T20:19:34;39.67;;;11.85;;
50363;SDS011;36272;59.400;17.982;2023-12-20T20:24:35;43.05;;;12.52;;
50363;SDS011;36272;59.400;17.982;2023-12-20T20:29:37;40.05;;;12.80;;
50363;SDS011;36272;59.400;17.982;2023-12-20T20:34:39;44.90;;;13.23;;
50363;SDS011;36272;59.400;17.982;2023-12-20T20:39:40;47.20;;;13.25;;
50363;SDS011;36272;59.400;17.982;2023-12-20T20:44:42;43.80;;;13.07;;
50363;SDS011;36272;59.400;17.982;2023-12-20T20:49:44;44.92;;;13.18;;
50363;SDS011;36272;59.400;17.982;2023-12-20T20:54:46;41.17;;;12.70;;
50363;SDS011;36272;59.400;17.982;2023-12-20T20:59:47;39.85;;;13.15;;
50363;SDS011;36272;59.400;17.982;2023-12-20T21:04:49;46.50;;;13.43;;
50363;SDS011;36272;59.400;17.982;2023-12-20T21:09:50;52.55;;;14.75;;
50363;SDS011;36272;59.400;17.982;2023-12-20T21:14:52;54.22;;;15.63;;
50363;SDS011;36272;59.400;17.982;2023-12-20T21:19:54;43.75;;;14.50;;
50363;SDS011;36272;59.400;17.982;2023-12-20T21:25:00;40.13;;;14.73;;
50363;SDS011;36272;59.400;17.982;2023-12-20T21:30:02;53.33;;;17.02;;
50363;SDS011;36272;59.400;17.982;2023-12-20T21:35:04;51.33;;;16.80;;
50363;SDS011;36272;59.400;17.982;2023-12-20T21:40:07;46.63;;;15.43;;
50363;SDS011;36272;59.400;17.982;2023-12-20T21:45:10;40.92;;;13.88;;
50363;SDS011;36272;59.400;17.982;2023-12-20T21:50:12;43.28;;;14.57;;
50363;SDS011;36272;59.400;17.982;2023-12-20T21:55:15;36.45;;;13.98;;
50363;SDS011;36272;59.400;17.982;2023-12-20T22:00:17;45.42;;;14.82;;
50363;SDS011;36272;59.400;17.982;2023-12-20T22:05:19;37.55;;;15.07;;
50363;SDS011;36272;59.400;17.982;2023-12-20T22:10:20;44.80;;;13.43;;
50363;SDS011;36272;59.400;17.982;2023-12-20T22:15:22;36.72;;;12.23;;
50363;SDS011;36272;59.400;17.982;2023-12-20T22:20:24;35.22;;;12.18;;
50363;SDS011;36272;59.400;17.982;2023-12-20T22:25:25;37.22;;;13.43;;
50363;SDS011;36272;59.400;17.982;2023-12-20T22:30:27;38.85;;;13.15;;
50363;SDS011;36272;59.400;17.982;2023-12-20T22:35:29;35.40;;;12.95;;
50363;SDS011;36272;59.400;17.982;2023-12-20T22:40:30;31.30;;;11.82;;
50363;SDS011;36272;59.400;17.982;2023-12-20T22:45:32;33.50;;;12.32;;
50363;SDS011;36272;59.400;17.982;2023-12-20T22:50:36;45.20;;;12.25;;
50363;SDS011;36272;59.400;17.982;2023-12-20T22:55:37;35.78;;;11.32;;
50363;SDS011;36272;59.400;17.982;2023-12-20T23:00:39;28.45;;;10.48;;
50363;SDS011;36272;59.400;17.982;2023-12-20T23:05:41;35.95;;;10.05;;
50363;SDS011;36272;59.400;17.982;2023-12-20T23:10:42;29.58;;;9.95;;
50363;SDS011;36272;59.400;17.982;2023-12-20T23:15:44;26.63;;;10.25;;
50363;SDS011;36272;59.400;17.982;2023-12-20T23:20:46;19.73;;;9.20;;
50363;SDS011;36272;59.400;17.982;2023-12-20T23:25:53;20.55;;;8.93;;
50363;SDS011;36272;59.400;17.982;2023-12-20T23:30:54;20.80;;;8.38;;
50363;SDS011;36272;59.400;17.982;2023-12-20T23:35:56;23.20;;;9.43;;
50363;SDS011;36272;59.400;17.982;2023-12-20T23:40:58;20.88;;;7.10;;
50363;SDS011;36272;59.400;17.982;2023-12-20T23:45:59;21.67;;;7.70;;
50363;SDS011;36272;59.400;17.982;2023-12-20T23:51:01;15.45;;;6.57;;
50363;SDS011;36272;59.400;17.982;2023-12-20T23:56:03;15.27;;;6.00;;
